Atlanta, MI

12:31 AM EDT on April 27, 2015 (GMT -0400)
Moon Lake | | Change Station
CLOSE
Current Station
Personal Weather Station
Location: Lewiston, MI
Elevation: 1240 ft
Nearby Weather Stations

Elev 1240 ft 44.84 °N, 84.26 °W | Updated 7 seconds ago

Overcast
Overcast
41.9 °F
Feels Like 42 °F
N
0.4
Wind Variable Wind from WNW
Gusts 1.1 mph

Today
High -- | Low -- °F
--% Chance of Precip.
Yesterday
High -- | Low -- °F
Precip. -- in
6:32 AM 8:36 PM
First Quarter, 61% visible
Pressure 30.00 in
Visibility 10.0 miles
Clouds Mostly Cloudy 6000 ft
Overcast 8500 ft
Windchill 42 °F
Dew Point 33 °F
Humidity 69%
Rainfall 0.00 in
Snow Depth Not available.
UV 0 out of 12
Pollen 9.80 out of 12
Air Quality Not available.
Flu Activity Regional
METAR KGLR 270353Z AUTO VRB04KT 10SM BKN060 OVC085 05/M01 A2998 RMK AO2 SLP159 T00501006

More Conditions Fewer Conditions

Pressure 30.00 in
Visibility 10.0 miles
Clouds Mostly Cloudy 6000 ft
Overcast 8500 ft
Windchill 42 °F
Dew Point 33 °F
Humidity 69%
Rainfall 0.00 in
Snow Depth Not available.
UV 0 out of 12
Pollen 9.80 out of 12
Air Quality Not available.
Flu Activity Regional
METAR KGLR 270353Z AUTO VRB04KT 10SM BKN060 OVC085 05/M01 A2998 RMK AO2 SLP159 T00501006

More Conditions Fewer Conditions

The full scope of the disaster following a powerful 7.8-magnitude earthquake in Nepal may not come into view for days, but global charities are already sending emergency aid. Click to see how you can help.
Nowcast | as of 12:00 am EDT on April 27, 2015

At 1 am...cloudy. Slight chance of showers. Temperature 39. North winds 6 mph. At 3 am...cloudy. Slight chance of showers. Temperature 37. North winds 5 mph. At 5 am...cloudy. Temperature 37. North winds 6 mph. At 7 am...cloudy. Temperature 37. Light winds.

×

10-Day Weather Forecast

Almanac

Astronomy

Apr. 27, 2015 Rise Set
Actual Time
Civil Twilight
Nautical Twilight
Astronomical Twilight
Moon
Length of Visible Light
Length of Day
Tomorrow will be .
, % of the Moon is Illuminated

Today's Extremes

State Highs State Lows

Community

WunderPhotos

Upload Photos

1,817,262 photos uploaded!

WunderBlogs® & News

Nearby

Air Quality

  Air Quality AQ Index Pollutant
Not available.

Snow Depth

Station Depth Elevation

Earthquake Activity

City Distance Mag. Time & Date
Minimum magnitude displayed is 2.5.

Coastal Water Temperatures

Place Temperature

Stations

Nearby Weather Stations

Station Location Temp. Windchill Dew Point Humidity Wind Precip. Elev Updated Type